sensor_id;sensor_type;location;lat;lon;timestamp;temperature;humidity
39277;DHT22;63149;48.086;-1.606;2022-10-04T05:00:34;15.50;99.90
39277;DHT22;63149;48.086;-1.606;2022-10-04T05:03:03;15.50;99.90
39277;DHT22;63149;48.086;-1.606;2022-10-04T05:05:31;15.50;99.90
39277;DHT22;63149;48.086;-1.606;2022-10-04T05:08:13;15.40;99.90
39277;DHT22;63149;48.086;-1.606;2022-10-04T05:10:40;15.40;99.90
39277;DHT22;63149;48.086;-1.606;2022-10-04T05:13:08;15.40;99.90
39277;DHT22;63149;48.086;-1.606;2022-10-04T05:15:38;15.40;99.90
39277;DHT22;63149;48.086;-1.606;2022-10-04T05:18:13;15.30;99.90
39277;DHT22;63149;48.086;-1.606;2022-10-04T05:20:42;15.40;99.90
39277;DHT22;63149;48.086;-1.606;2022-10-04T05:23:12;15.40;99.90
39277;DHT22;63149;48.086;-1.606;2022-10-04T05:25:39;15.40;99.90
39277;DHT22;63149;48.086;-1.606;2022-10-04T05:28:08;15.40;99.90
39277;DHT22;63149;48.086;-1.606;2022-10-04T05:30:39;15.30;99.90
39277;DHT22;63149;48.086;-1.606;2022-10-04T05:33:07;15.30;99.90
39277;DHT22;63149;48.086;-1.606;2022-10-04T05:35:40;15.30;99.90
39277;DHT22;63149;48.086;-1.606;2022-10-04T05:38:09;15.30;99.90
39277;DHT22;63149;48.086;-1.606;2022-10-04T05:40:40;15.30;99.90
39277;DHT22;63149;48.086;-1.606;2022-10-04T05:43:23;15.30;99.90
39277;DHT22;63149;48.086;-1.606;2022-10-04T05:48:45;15.20;99.90
39277;DHT22;63149;48.086;-1.606;2022-10-04T05:51:16;15.30;99.90
39277;DHT22;63149;48.086;-1.606;2022-10-04T05:53:43;15.30;99.90
39277;DHT22;63149;48.086;-1.606;2022-10-04T05:56:11;15.20;99.90
39277;DHT22;63149;48.086;-1.606;2022-10-04T05:58:49;15.20;99.90
39277;DHT22;63149;48.086;-1.606;2022-10-04T06:01:22;15.10;99.90
39277;DHT22;63149;48.086;-1.606;2022-10-04T06:06:37;15.10;99.90
39277;DHT22;63149;48.086;-1.606;2022-10-04T06:09:07;15.10;99.90
39277;DHT22;63149;48.086;-1.606;2022-10-04T06:11:41;15.10;99.90
39277;DHT22;63149;48.086;-1.606;2022-10-04T06:14:29;15.20;99.90
39277;DHT22;63149;48.086;-1.606;2022-10-04T06:17:04;15.10;99.90
39277;DHT22;63149;48.086;-1.606;2022-10-04T06:19:49;15.10;99.90
39277;DHT22;63149;48.086;-1.606;2022-10-04T06:22:20;15.10;99.90
39277;DHT22;63149;48.086;-1.606;2022-10-04T06:24:48;15.10;99.90
39277;DHT22;63149;48.086;-1.606;2022-10-04T06:27:17;15.10;99.90
39277;DHT22;63149;48.086;-1.606;2022-10-04T06:29:46;15.00;99.90
39277;DHT22;63149;48.086;-1.606;2022-10-04T06:37:49;14.90;99.90
39277;DHT22;63149;48.086;-1.606;2022-10-04T06:43:11;15.00;99.90
39277;DHT22;63149;48.086;-1.606;2022-10-04T06:45:47;15.00;99.90
39277;DHT22;63149;48.086;-1.606;2022-10-04T06:48:30;15.00;99.90
39277;DHT22;63149;48.086;-1.606;2022-10-04T06:51:01;15.00;99.90
39277;DHT22;63149;48.086;-1.606;2022-10-04T06:53:33;14.90;99.90
39277;DHT22;63149;48.086;-1.606;2022-10-04T06:56:06;14.90;99.90
39277;DHT22;63149;48.086;-1.606;2022-10-04T06:58:39;15.00;99.90
39277;DHT22;63149;48.086;-1.606;2022-10-04T07:01:18;15.00;99.90
39277;DHT22;63149;48.086;-1.606;2022-10-04T07:03:48;15.00;99.90
39277;DHT22;63149;48.086;-1.606;2022-10-04T07:06:20;15.10;99.90
39277;DHT22;63149;48.086;-1.606;2022-10-04T07:08:51;15.10;99.90
39277;DHT22;63149;48.086;-1.606;2022-10-04T07:11:21;15.10;99.90
39277;DHT22;63149;48.086;-1.606;2022-10-04T07:13:50;15.10;99.90
39277;DHT22;63149;48.086;-1.606;2022-10-04T07:16:28;15.20;99.90
39277;DHT22;63149;48.086;-1.606;2022-10-04T07:18:58;15.10;99.90
39277;DHT22;63149;48.086;-1.606;2022-10-04T07:21:26;15.20;99.90
39277;DHT22;63149;48.086;-1.606;2022-10-04T07:24:00;15.30;99.90
39277;DHT22;63149;48.086;-1.606;2022-10-04T07:26:29;15.30;99.90
39277;DHT22;63149;48.086;-1.606;2022-10-04T07:28:59;15.40;99.90
39277;DHT22;63149;48.086;-1.606;2022-10-04T07:31:44;15.50;99.90
39277;DHT22;63149;48.086;-1.606;2022-10-04T07:34:13;15.50;99.90
39277;DHT22;63149;48.086;-1.606;2022-10-04T07:36:42;15.60;99.90
39277;DHT22;63149;48.086;-1.606;2022-10-04T07:39:12;15.70;99.90
39277;DHT22;63149;48.086;-1.606;2022-10-04T07:41:43;15.70;99.90
39277;DHT22;63149;48.086;-1.606;2022-10-04T07:44:13;15.70;99.90
39277;DHT22;63149;48.086;-1.606;2022-10-04T07:46:43;15.70;99.90
39277;DHT22;63149;48.086;-1.606;2022-10-04T07:49:12;15.70;99.90
39277;DHT22;63149;48.086;-1.606;2022-10-04T07:51:41;15.80;99.90
39277;DHT22;63149;48.086;-1.606;2022-10-04T07:54:10;15.80;99.90
39277;DHT22;63149;48.086;-1.606;2022-10-04T07:56:40;15.80;99.90
39277;DHT22;63149;48.086;-1.606;2022-10-04T07:59:15;15.90;99.90
39277;DHT22;63149;48.086;-1.606;2022-10-04T08:01:46;16.00;99.90
39277;DHT22;63149;48.086;-1.606;2022-10-04T08:04:21;16.00;99.90
39277;DHT22;63149;48.086;-1.606;2022-10-04T08:06:56;16.00;99.90
39277;DHT22;63149;48.086;-1.606;2022-10-04T08:09:26;16.10;99.90
39277;DHT22;63149;48.086;-1.606;2022-10-04T08:11:59;16.20;99.90
39277;DHT22;63149;48.086;-1.606;2022-10-04T08:14:30;16.20;99.90
39277;DHT22;63149;48.086;-1.606;2022-10-04T08:17:07;16.30;99.90
39277;DHT22;63149;48.086;-1.606;2022-10-04T08:19:40;16.30;99.90
39277;DHT22;63149;48.086;-1.606;2022-10-04T08:22:12;16.30;99.90
39277;DHT22;63149;48.086;-1.606;2022-10-04T08:24:47;16.40;99.90
39277;DHT22;63149;48.086;-1.606;2022-10-04T08:27:28;16.30;99.90
39277;DHT22;63149;48.086;-1.606;2022-10-04T08:30:00;16.40;99.90
39277;DHT22;63149;48.086;-1.606;2022-10-04T08:32:40;16.50;99.90
39277;DHT22;63149;48.086;-1.606;2022-10-04T08:35:14;16.60;99.90
39277;DHT22;63149;48.086;-1.606;2022-10-04T08:37:45;16.70;99.90
39277;DHT22;63149;48.086;-1.606;2022-10-04T08:43:15;16.70;99.90
39277;DHT22;63149;48.086;-1.606;2022-10-04T08:57:01;17.30;99.90
39277;DHT22;63149;48.086;-1.606;2022-10-04T09:02:27;17.40;99.90
39277;DHT22;63149;48.086;-1.606;2022-10-04T09:08:01;17.50;99.90
39277;DHT22;63149;48.086;-1.606;2022-10-04T09:10:36;17.60;99.90
39277;DHT22;63149;48.086;-1.606;2022-10-04T09:13:14;17.70;99.90
39277;DHT22;63149;48.086;-1.606;2022-10-04T09:15:52;17.60;99.90
39277;DHT22;63149;48.086;-1.606;2022-10-04T09:18:26;17.60;99.90
39277;DHT22;63149;48.086;-1.606;2022-10-04T09:20:56;17.50;99.90
39277;DHT22;63149;48.086;-1.606;2022-10-04T09:23:38;17.60;99.90
39277;DHT22;63149;48.086;-1.606;2022-10-04T09:26:19;17.70;99.90
39277;DHT22;63149;48.086;-1.606;2022-10-04T09:28:59;17.70;99.90
39277;DHT22;63149;48.086;-1.606;2022-10-04T09:31:43;17.70;99.90
39277;DHT22;63149;48.086;-1.606;2022-10-04T09:34:21;17.70;99.90
39277;DHT22;63149;48.086;-1.606;2022-10-04T09:36:55;17.70;99.90
39277;DHT22;63149;48.086;-1.606;2022-10-04T09:39:38;17.80;99.90
39277;DHT22;63149;48.086;-1.606;2022-10-04T09:42:13;17.70;99.90
39277;DHT22;63149;48.086;-1.606;2022-10-04T09:44:47;17.60;99.90
39277;DHT22;63149;48.086;-1.606;2022-10-04T09:47:30;17.50;99.90
39277;DHT22;63149;48.086;-1.606;2022-10-04T09:53:16;17.60;99.90
39277;DHT22;63149;48.086;-1.606;2022-10-04T09:55:59;17.70;99.90
39277;DHT22;63149;48.086;-1.606;2022-10-04T09:58:34;17.70;99.90
39277;DHT22;63149;48.086;-1.606;2022-10-04T10:01:12;17.80;99.90
39277;DHT22;63149;48.086;-1.606;2022-10-04T10:03:45;17.70;99.90
39277;DHT22;63149;48.086;-1.606;2022-10-04T10:06:26;17.70;99.90
39277;DHT22;63149;48.086;-1.606;2022-10-04T10:09:01;17.70;99.90
39277;DHT22;63149;48.086;-1.606;2022-10-04T10:11:33;17.70;99.90
39277;DHT22;63149;48.086;-1.606;2022-10-04T10:14:29;17.70;99.90
39277;DHT22;63149;48.086;-1.606;2022-10-04T10:17:01;17.90;99.90
39277;DHT22;63149;48.086;-1.606;2022-10-04T10:19:45;18.00;99.90
39277;DHT22;63149;48.086;-1.606;2022-10-04T10:22:22;18.00;99.90
39277;DHT22;63149;48.086;-1.606;2022-10-04T10:27:42;18.30;99.90
39277;DHT22;63149;48.086;-1.606;2022-10-04T10:30:22;18.50;99.90
39277;DHT22;63149;48.086;-1.606;2022-10-04T10:32:54;20.00;99.90
39277;DHT22;63149;48.086;-1.606;2022-10-04T10:35:31;22.50;99.90
39277;DHT22;63149;48.086;-1.606;2022-10-04T10:38:07;24.60;99.90
39277;DHT22;63149;48.086;-1.606;2022-10-04T10:40:40;23.00;99.90
39277;DHT22;63149;48.086;-1.606;2022-10-04T10:43:23;22.30;99.90
39277;DHT22;63149;48.086;-1.606;2022-10-04T10:45:55;21.70;99.90
39277;DHT22;63149;48.086;-1.606;2022-10-04T10:48:30;21.10;99.90
39277;DHT22;63149;48.086;-1.606;2022-10-04T10:51:01;20.70;99.90
39277;DHT22;63149;48.086;-1.606;2022-10-04T10:56:29;20.40;99.90
39277;DHT22;63149;48.086;-1.606;2022-10-04T10:59:06;20.30;99.90
39277;DHT22;63149;48.086;-1.606;2022-10-04T11:01:42;19.90;99.90
39277;DHT22;63149;48.086;-1.606;2022-10-04T11:04:20;19.80;99.90
39277;DHT22;63149;48.086;-1.606;2022-10-04T11:10:00;19.50;99.90
39277;DHT22;63149;48.086;-1.606;2022-10-04T11:12:37;19.40;99.90
39277;DHT22;63149;48.086;-1.606;2022-10-04T11:26:16;19.00;99.90
39277;DHT22;63149;48.086;-1.606;2022-10-04T11:28:51;19.00;99.90
39277;DHT22;63149;48.086;-1.606;2022-10-04T11:31:37;18.90;99.90
39277;DHT22;63149;48.086;-1.606;2022-10-04T11:37:06;18.70;99.90
39277;DHT22;63149;48.086;-1.606;2022-10-04T11:39:47;18.60;99.90
39277;DHT22;63149;48.086;-1.606;2022-10-04T11:42:23;18.50;99.90
39277;DHT22;63149;48.086;-1.606;2022-10-04T11:45:00;18.50;99.90
39277;DHT22;63149;48.086;-1.606;2022-10-04T11:47:38;18.40;99.90
39277;DHT22;63149;48.086;-1.606;2022-10-04T11:50:13;18.30;99.90
39277;DHT22;63149;48.086;-1.606;2022-10-04T11:52:54;18.20;99.90
39277;DHT22;63149;48.086;-1.606;2022-10-04T11:55:34;18.20;99.90
39277;DHT22;63149;48.086;-1.606;2022-10-04T11:58:06;18.10;99.90
39277;DHT22;63149;48.086;-1.606;2022-10-04T12:00:47;18.10;99.90
39277;DHT22;63149;48.086;-1.606;2022-10-04T12:03:34;18.10;99.90
39277;DHT22;63149;48.086;-1.606;2022-10-04T12:08:55;18.10;99.90
39277;DHT22;63149;48.086;-1.606;2022-10-04T12:14:27;18.00;99.90
39277;DHT22;63149;48.086;-1.606;2022-10-04T12:17:07;17.90;99.90
39277;DHT22;63149;48.086;-1.606;2022-10-04T12:22:37;17.90;99.90
39277;DHT22;63149;48.086;-1.606;2022-10-04T12:27:55;17.80;99.90
39277;DHT22;63149;48.086;-1.606;2022-10-04T12:30:29;17.70;99.90
39277;DHT22;63149;48.086;-1.606;2022-10-04T12:33:01;17.70;99.90
39277;DHT22;63149;48.086;-1.606;2022-10-04T12:35:33;17.70;99.90
39277;DHT22;63149;48.086;-1.606;2022-10-04T12:38:09;17.70;99.90
39277;DHT22;63149;48.086;-1.606;2022-10-04T12:40:40;17.60;99.90
39277;DHT22;63149;48.086;-1.606;2022-10-04T12:43:10;17.60;99.90
39277;DHT22;63149;48.086;-1.606;2022-10-04T12:45:49;17.70;99.90
39277;DHT22;63149;48.086;-1.606;2022-10-04T12:48:23;17.70;99.90
39277;DHT22;63149;48.086;-1.606;2022-10-04T12:50:52;17.70;99.90
39277;DHT22;63149;48.086;-1.606;2022-10-04T12:53:26;17.70;99.90
39277;DHT22;63149;48.086;-1.606;2022-10-04T12:56:06;17.80;99.90
39277;DHT22;63149;48.086;-1.606;2022-10-04T12:58:40;17.80;99.90
39277;DHT22;63149;48.086;-1.606;2022-10-04T13:01:11;17.90;99.90
39277;DHT22;63149;48.086;-1.606;2022-10-04T13:03:53;18.00;99.90
39277;DHT22;63149;48.086;-1.606;2022-10-04T13:06:26;18.00;99.90
39277;DHT22;63149;48.086;-1.606;2022-10-04T13:09:00;18.00;99.90
39277;DHT22;63149;48.086;-1.606;2022-10-04T13:11:34;18.00;99.90
39277;DHT22;63149;48.086;-1.606;2022-10-04T13:14:14;18.00;99.90
39277;DHT22;63149;48.086;-1.606;2022-10-04T13:16:45;18.00;99.90
39277;DHT22;63149;48.086;-1.606;2022-10-04T13:19:16;18.00;99.90
39277;DHT22;63149;48.086;-1.606;2022-10-04T13:21:52;17.90;99.90
39277;DHT22;63149;48.086;-1.606;2022-10-04T13:24:22;17.90;99.90
39277;DHT22;63149;48.086;-1.606;2022-10-04T13:26:53;17.90;99.90
39277;DHT22;63149;48.086;-1.606;2022-10-04T13:29:23;18.00;99.90
39277;DHT22;63149;48.086;-1.606;2022-10-04T13:31:54;18.10;99.90
39277;DHT22;63149;48.086;-1.606;2022-10-04T13:34:25;18.10;99.90
39277;DHT22;63149;48.086;-1.606;2022-10-04T13:37:06;18.20;99.90
39277;DHT22;63149;48.086;-1.606;2022-10-04T13:42:26;18.30;99.90
39277;DHT22;63149;48.086;-1.606;2022-10-04T13:44:59;18.40;99.90
39277;DHT22;63149;48.086;-1.606;2022-10-04T13:47:44;18.40;99.90
39277;DHT22;63149;48.086;-1.606;2022-10-04T13:50:28;18.50;99.90
39277;DHT22;63149;48.086;-1.606;2022-10-04T13:53:00;18.60;99.90
39277;DHT22;63149;48.086;-1.606;2022-10-04T13:55:47;18.60;99.90
39277;DHT22;63149;48.086;-1.606;2022-10-04T13:58:39;18.80;99.90
39277;DHT22;63149;48.086;-1.606;2022-10-04T14:04:01;18.80;99.90
39277;DHT22;63149;48.086;-1.606;2022-10-04T14:06:38;18.80;99.90
39277;DHT22;63149;48.086;-1.606;2022-10-04T14:12:04;18.90;99.90
39277;DHT22;63149;48.086;-1.606;2022-10-04T14:14:42;18.90;99.90
39277;DHT22;63149;48.086;-1.606;2022-10-04T14:22:51;18.70;99.90
39277;DHT22;63149;48.086;-1.606;2022-10-04T14:25:37;18.60;99.90
39277;DHT22;63149;48.086;-1.606;2022-10-04T14:31:08;18.50;99.90
39277;DHT22;63149;48.086;-1.606;2022-10-04T14:39:16;18.40;99.90
39277;DHT22;63149;48.086;-1.606;2022-10-04T14:44:35;18.40;99.90
39277;DHT22;63149;48.086;-1.606;2022-10-04T14:47:14;18.40;99.90
39277;DHT22;63149;48.086;-1.606;2022-10-04T14:49:51;18.50;99.90
39277;DHT22;63149;48.086;-1.606;2022-10-04T14:52:27;18.50;99.90
39277;DHT22;63149;48.086;-1.606;2022-10-04T14:55:06;18.50;99.90
39277;DHT22;63149;48.086;-1.606;2022-10-04T14:57:42;18.50;99.90
39277;DHT22;63149;48.086;-1.606;2022-10-04T15:00:16;18.50;99.90
39277;DHT22;63149;48.086;-1.606;2022-10-04T15:02:53;18.50;99.90
39277;DHT22;63149;48.086;-1.606;2022-10-04T15:05:27;18.50;99.90
39277;DHT22;63149;48.086;-1.606;2022-10-04T15:07:58;18.50;99.90
39277;DHT22;63149;48.086;-1.606;2022-10-04T15:10:44;18.40;99.90
39277;DHT22;63149;48.086;-1.606;2022-10-04T15:13:17;18.50;99.90
39277;DHT22;63149;48.086;-1.606;2022-10-04T15:15:51;18.40;99.90
39277;DHT22;63149;48.086;-1.606;2022-10-04T15:18:31;18.40;99.90
39277;DHT22;63149;48.086;-1.606;2022-10-04T15:21:01;18.50;99.90
39277;DHT22;63149;48.086;-1.606;2022-10-04T15:23:34;18.50;99.90
39277;DHT22;63149;48.086;-1.606;2022-10-04T15:26:35;18.50;99.90
39277;DHT22;63149;48.086;-1.606;2022-10-04T15:29:04;18.50;99.90
39277;DHT22;63149;48.086;-1.606;2022-10-04T15:31:42;18.50;99.90
39277;DHT22;63149;48.086;-1.606;2022-10-04T15:34:20;18.60;99.90
39277;DHT22;63149;48.086;-1.606;2022-10-04T15:36:58;18.60;99.90
39277;DHT22;63149;48.086;-1.606;2022-10-04T15:42:13;18.60;99.90
39277;DHT22;63149;48.086;-1.606;2022-10-04T15:45:06;18.60;99.90
39277;DHT22;63149;48.086;-1.606;2022-10-04T15:47:50;18.60;99.90
39277;DHT22;63149;48.086;-1.606;2022-10-04T15:50:21;18.60;99.90
39277;DHT22;63149;48.086;-1.606;2022-10-04T15:53:10;18.60;99.90
39277;DHT22;63149;48.086;-1.606;2022-10-04T15:55:55;18.60;99.90
39277;DHT22;63149;48.086;-1.606;2022-10-04T15:58:30;18.60;99.90
39277;DHT22;63149;48.086;-1.606;2022-10-04T16:01:04;18.60;99.90
39277;DHT22;63149;48.086;-1.606;2022-10-04T16:03:40;18.50;99.90
39277;DHT22;63149;48.086;-1.606;2022-10-04T16:06:11;18.60;99.90
39277;DHT22;63149;48.086;-1.606;2022-10-04T16:08:48;18.50;99.90
39277;DHT22;63149;48.086;-1.606;2022-10-04T16:11:27;18.60;99.90
39277;DHT22;63149;48.086;-1.606;2022-10-04T16:17:01;18.60;99.90
39277;DHT22;63149;48.086;-1.606;2022-10-04T16:19:43;18.60;99.90
39277;DHT22;63149;48.086;-1.606;2022-10-04T16:22:14;18.60;99.90
39277;DHT22;63149;48.086;-1.606;2022-10-04T16:24:43;18.60;99.90
39277;DHT22;63149;48.086;-1.606;2022-10-04T16:27:22;18.60;99.90
39277;DHT22;63149;48.086;-1.606;2022-10-04T16:29:54;18.60;99.90
39277;DHT22;63149;48.086;-1.606;2022-10-04T16:32:28;18.60;99.90
39277;DHT22;63149;48.086;-1.606;2022-10-04T16:34:56;18.60;99.90
39277;DHT22;63149;48.086;-1.606;2022-10-04T16:37:27;18.50;99.90
39277;DHT22;63149;48.086;-1.606;2022-10-04T16:39:56;18.50;99.90
39277;DHT22;63149;48.086;-1.606;2022-10-04T16:42:25;18.40;99.90
39277;DHT22;63149;48.086;-1.606;2022-10-04T16:44:53;18.40;99.90
39277;DHT22;63149;48.086;-1.606;2022-10-04T16:47:24;18.30;99.90
39277;DHT22;63149;48.086;-1.606;2022-10-04T16:49:54;18.30;99.90
39277;DHT22;63149;48.086;-1.606;2022-10-04T17:00:42;18.10;99.90
39277;DHT22;63149;48.086;-1.606;2022-10-04T17:03:11;18.10;99.90
39277;DHT22;63149;48.086;-1.606;2022-10-04T17:05:44;18.10;99.90
39277;DHT22;63149;48.086;-1.606;2022-10-04T17:08:18;18.10;99.90
39277;DHT22;63149;48.086;-1.606;2022-10-04T17:11:00;18.10;99.90
39277;DHT22;63149;48.086;-1.606;2022-10-04T17:13:33;18.10;99.90
39277;DHT22;63149;48.086;-1.606;2022-10-04T17:16:02;18.10;99.90
39277;DHT22;63149;48.086;-1.606;2022-10-04T17:18:34;18.10;99.90
39277;DHT22;63149;48.086;-1.606;2022-10-04T17:21:11;18.10;99.90
39277;DHT22;63149;48.086;-1.606;2022-10-04T17:23:50;18.10;99.90
39277;DHT22;63149;48.086;-1.606;2022-10-04T17:26:23;18.00;99.90
39277;DHT22;63149;48.086;-1.606;2022-10-04T17:28:54;17.90;99.90
39277;DHT22;63149;48.086;-1.606;2022-10-04T17:31:23;17.90;99.90
39277;DHT22;63149;48.086;-1.606;2022-10-04T17:33:54;17.90;99.90
39277;DHT22;63149;48.086;-1.606;2022-10-04T17:36:34;17.90;99.90
39277;DHT22;63149;48.086;-1.606;2022-10-04T17:39:06;17.90;99.90
39277;DHT22;63149;48.086;-1.606;2022-10-04T17:41:43;17.80;99.90
39277;DHT22;63149;48.086;-1.606;2022-10-04T17:44:23;17.80;99.90
39277;DHT22;63149;48.086;-1.606;2022-10-04T17:46:54;17.80;99.90
39277;DHT22;63149;48.086;-1.606;2022-10-04T17:49:25;17.80;99.90
39277;DHT22;63149;48.086;-1.606;2022-10-04T17:52:14;17.80;99.90
39277;DHT22;63149;48.086;-1.606;2022-10-04T17:54:59;17.80;99.90
39277;DHT22;63149;48.086;-1.606;2022-10-04T17:57:42;17.70;99.90
39277;DHT22;63149;48.086;-1.606;2022-10-04T18:00:12;17.70;99.90
39277;DHT22;63149;48.086;-1.606;2022-10-04T18:02:54;17.70;99.90
39277;DHT22;63149;48.086;-1.606;2022-10-04T18:05:24;17.60;99.90
39277;DHT22;63149;48.086;-1.606;2022-10-04T18:07:55;17.70;99.90
39277;DHT22;63149;48.086;-1.606;2022-10-04T18:10:22;17.70;99.90
39277;DHT22;63149;48.086;-1.606;2022-10-04T18:12:54;17.60;99.90
39277;DHT22;63149;48.086;-1.606;2022-10-04T18:15:23;17.60;99.90
39277;DHT22;63149;48.086;-1.606;2022-10-04T18:17:52;17.60;99.90
39277;DHT22;63149;48.086;-1.606;2022-10-04T18:20:32;17.60;99.90
39277;DHT22;63149;48.086;-1.606;2022-10-04T18:23:02;17.60;99.90
39277;DHT22;63149;48.086;-1.606;2022-10-04T18:25:37;17.60;99.90
39277;DHT22;63149;48.086;-1.606;2022-10-04T18:28:10;17.50;99.90
39277;DHT22;63149;48.086;-1.606;2022-10-04T18:33:23;17.50;99.90
39277;DHT22;63149;48.086;-1.606;2022-10-04T18:35:51;17.50;99.90
39277;DHT22;63149;48.086;-1.606;2022-10-04T18:38:21;17.50;99.90
39277;DHT22;63149;48.086;-1.606;2022-10-04T18:40:53;17.50;99.90
39277;DHT22;63149;48.086;-1.606;2022-10-04T18:43:24;17.50;99.90
39277;DHT22;63149;48.086;-1.606;2022-10-04T18:45:58;17.40;99.90
39277;DHT22;63149;48.086;-1.606;2022-10-04T18:48:35;17.50;99.90
39277;DHT22;63149;48.086;-1.606;2022-10-04T18:51:11;17.40;99.90
39277;DHT22;63149;48.086;-1.606;2022-10-04T18:53:46;17.40;99.90
39277;DHT22;63149;48.086;-1.606;2022-10-04T18:56:15;17.50;99.90
39277;DHT22;63149;48.086;-1.606;2022-10-04T18:58:46;17.50;99.90
39277;DHT22;63149;48.086;-1.606;2022-10-04T19:01:38;17.50;99.90
39277;DHT22;63149;48.086;-1.606;2022-10-04T19:07:13;17.40;99.90
39277;DHT22;63149;48.086;-1.606;2022-10-04T19:09:50;17.50;99.90
39277;DHT22;63149;48.086;-1.606;2022-10-04T19:12:20;17.40;99.90
39277;DHT22;63149;48.086;-1.606;2022-10-04T19:14:49;17.40;99.90
39277;DHT22;63149;48.086;-1.606;2022-10-04T19:17:20;17.40;99.90
39277;DHT22;63149;48.086;-1.606;2022-10-04T19:19:52;17.30;99.90
39277;DHT22;63149;48.086;-1.606;2022-10-04T19:22:25;17.30;99.90
39277;DHT22;63149;48.086;-1.606;2022-10-04T19:25:06;17.30;99.90
39277;DHT22;63149;48.086;-1.606;2022-10-04T19:27:37;17.30;99.90
39277;DHT22;63149;48.086;-1.606;2022-10-04T19:30:14;17.30;99.90
39277;DHT22;63149;48.086;-1.606;2022-10-04T19:32:46;17.30;99.90
39277;DHT22;63149;48.086;-1.606;2022-10-04T19:35:18;17.30;99.90
39277;DHT22;63149;48.086;-1.606;2022-10-04T19:37:49;17.30;99.90
39277;DHT22;63149;48.086;-1.606;2022-10-04T19:40:20;17.30;99.90
39277;DHT22;63149;48.086;-1.606;2022-10-04T19:42:49;17.20;99.90
39277;DHT22;63149;48.086;-1.606;2022-10-04T19:45:23;17.20;99.90
39277;DHT22;63149;48.086;-1.606;2022-10-04T19:47:52;17.20;99.90
39277;DHT22;63149;48.086;-1.606;2022-10-04T19:50:21;17.20;99.90
39277;DHT22;63149;48.086;-1.606;2022-10-04T19:52:50;17.20;99.90
39277;DHT22;63149;48.086;-1.606;2022-10-04T19:55:21;17.20;99.90
39277;DHT22;63149;48.086;-1.606;2022-10-04T19:57:49;17.20;99.90
39277;DHT22;63149;48.086;-1.606;2022-10-04T20:00:16;17.20;99.90
39277;DHT22;63149;48.086;-1.606;2022-10-04T20:02:44;17.20;99.90
39277;DHT22;63149;48.086;-1.606;2022-10-04T20:05:11;17.20;99.90
39277;DHT22;63149;48.086;-1.606;2022-10-04T20:07:39;17.20;99.90
39277;DHT22;63149;48.086;-1.606;2022-10-04T20:10:13;17.10;99.90
39277;DHT22;63149;48.086;-1.606;2022-10-04T20:12:56;17.10;99.90
39277;DHT22;63149;48.086;-1.606;2022-10-04T20:15:42;17.10;99.90
39277;DHT22;63149;48.086;-1.606;2022-10-04T20:21:03;17.00;99.90
39277;DHT22;63149;48.086;-1.606;2022-10-04T20:23:46;17.00;99.90
39277;DHT22;63149;48.086;-1.606;2022-10-04T20:31:58;17.00;99.90
39277;DHT22;63149;48.086;-1.606;2022-10-04T20:34:39;17.00;99.90
39277;DHT22;63149;48.086;-1.606;2022-10-04T20:37:13;17.00;99.90
39277;DHT22;63149;48.086;-1.606;2022-10-04T20:42:29;17.00;99.90
39277;DHT22;63149;48.086;-1.606;2022-10-04T20:44:57;16.90;99.90
39277;DHT22;63149;48.086;-1.606;2022-10-04T20:47:28;17.00;99.90
39277;DHT22;63149;48.086;-1.606;2022-10-04T20:49:56;16.90;99.90
39277;DHT22;63149;48.086;-1.606;2022-10-04T20:52:24;16.90;99.90
39277;DHT22;63149;48.086;-1.606;2022-10-04T20:54:52;16.90;99.90
39277;DHT22;63149;48.086;-1.606;2022-10-04T20:57:19;16.90;99.90
39277;DHT22;63149;48.086;-1.606;2022-10-04T20:59:48;16.80;99.90
39277;DHT22;63149;48.086;-1.606;2022-10-04T21:02:15;16.80;99.90
39277;DHT22;63149;48.086;-1.606;2022-10-04T21:04:43;16.80;99.90
39277;DHT22;63149;48.086;-1.606;2022-10-04T21:07:15;16.80;99.90
39277;DHT22;63149;48.086;-1.606;2022-10-04T21:09:42;16.80;99.90
39277;DHT22;63149;48.086;-1.606;2022-10-04T21:14:59;16.80;99.90
39277;DHT22;63149;48.086;-1.606;2022-10-04T21:17:33;16.80;99.90
39277;DHT22;63149;48.086;-1.606;2022-10-04T21:20:02;16.80;99.90
39277;DHT22;63149;48.086;-1.606;2022-10-04T21:22:33;16.70;99.90
39277;DHT22;63149;48.086;-1.606;2022-10-04T21:25:00;16.70;99.90
39277;DHT22;63149;48.086;-1.606;2022-10-04T21:27:27;16.70;99.90
39277;DHT22;63149;48.086;-1.606;2022-10-04T21:29:55;16.70;99.90
39277;DHT22;63149;48.086;-1.606;2022-10-04T21:32:22;16.70;99.90
39277;DHT22;63149;48.086;-1.606;2022-10-04T21:34:49;16.70;99.90
39277;DHT22;63149;48.086;-1.606;2022-10-04T21:37:17;16.70;99.90
39277;DHT22;63149;48.086;-1.606;2022-10-04T21:39:44;16.70;99.90
39277;DHT22;63149;48.086;-1.606;2022-10-04T21:42:11;16.70;99.90
39277;DHT22;63149;48.086;-1.606;2022-10-04T21:44:37;16.70;99.90
39277;DHT22;63149;48.086;-1.606;2022-10-04T21:47:04;16.70;99.90
39277;DHT22;63149;48.086;-1.606;2022-10-04T21:49:31;16.70;99.90
39277;DHT22;63149;48.086;-1.606;2022-10-04T21:51:57;16.60;99.90
39277;DHT22;63149;48.086;-1.606;2022-10-04T21:54:25;16.70;99.90
39277;DHT22;63149;48.086;-1.606;2022-10-04T21:56:52;16.60;99.90
39277;DHT22;63149;48.086;-1.606;2022-10-04T21:59:19;16.60;99.90
39277;DHT22;63149;48.086;-1.606;2022-10-04T22:01:46;16.60;99.90
39277;DHT22;63149;48.086;-1.606;2022-10-04T22:04:13;16.50;99.90
39277;DHT22;63149;48.086;-1.606;2022-10-04T22:06:39;16.50;99.90
39277;DHT22;63149;48.086;-1.606;2022-10-04T22:09:06;16.50;99.90
39277;DHT22;63149;48.086;-1.606;2022-10-04T22:11:35;16.50;99.90
39277;DHT22;63149;48.086;-1.606;2022-10-04T22:14:02;16.50;99.90
39277;DHT22;63149;48.086;-1.606;2022-10-04T22:16:28;16.40;99.90
39277;DHT22;63149;48.086;-1.606;2022-10-04T22:18:55;16.40;99.90
39277;DHT22;63149;48.086;-1.606;2022-10-04T22:21:22;16.30;99.90
39277;DHT22;63149;48.086;-1.606;2022-10-04T22:23:48;16.30;99.90
39277;DHT22;63149;48.086;-1.606;2022-10-04T22:26:15;16.30;99.90
39277;DHT22;63149;48.086;-1.606;2022-10-04T22:28:45;16.30;99.90
39277;DHT22;63149;48.086;-1.606;2022-10-04T22:31:12;16.20;99.90
39277;DHT22;63149;48.086;-1.606;2022-10-04T22:33:40;16.20;99.90
39277;DHT22;63149;48.086;-1.606;2022-10-04T22:36:11;16.20;99.90
39277;DHT22;63149;48.086;-1.606;2022-10-04T22:38:38;16.20;99.90
39277;DHT22;63149;48.086;-1.606;2022-10-04T22:41:07;16.10;99.90
39277;DHT22;63149;48.086;-1.606;2022-10-04T22:43:34;16.10;99.90
39277;DHT22;63149;48.086;-1.606;2022-10-04T22:46:02;16.00;99.90
39277;DHT22;63149;48.086;-1.606;2022-10-04T22:48:29;16.00;99.90
39277;DHT22;63149;48.086;-1.606;2022-10-04T22:50:57;16.00;99.90
39277;DHT22;63149;48.086;-1.606;2022-10-04T22:53:23;16.00;99.90
39277;DHT22;63149;48.086;-1.606;2022-10-04T22:55:52;16.00;99.90
39277;DHT22;63149;48.086;-1.606;2022-10-04T22:58:20;16.00;99.90
